Time;durP1;ratioP1;P1;durP2;ratioP2;P2;SDS_P1;SDS_P2;PMS_P1;PMS_P2;Temp;Humidity;BMP_temperature;BMP_pressure;BME280_temperature;BME280_humidity;BME280_pressure;Samples;Min_cycle;Max_cycle;Signal;HPM_P1;HPM_P2
2024/03/05 00:01:51;;;;;;;;;;;;;;;9.72;100.00;98118.84;5007120;28;19918;-79
2024/03/05 00:04:16;;;;;;;;;;;;;;;9.79;100.00;98113.09;4991107;28;20013;-79
2024/03/05 00:06:41;;;;;;;;;;;;;;;9.82;100.00;98106.69;5007231;28;19928;-79
2024/03/05 00:09:07;;;;;;;;;;;;;;;9.91;100.00;98105.25;5007297;28;20379;-78
2024/03/05 00:11:32;;;;;;;;;;;;;;;9.93;100.00;98109.09;4990716;28;19918;-79
2024/03/05 00:13:58;;;;;;;;;;;;;;;9.97;100.00;98104.22;4990892;28;19918;-80
2024/03/05 00:16:23;;;;;;;;;;;;;;;9.98;100.00;98096.72;4992064;28;19940;-78
2024/03/05 00:18:48;;;;;;;;;;;;;;;10.03;100.00;98094.16;4991908;28;20800;-79
2024/03/05 00:21:14;;;;;;;;;;;;;;;9.96;100.00;98088.88;4993313;28;19985;-81
2024/03/05 00:23:40;;;;;;;;;;;;;;;9.96;100.00;98082.59;5007400;28;19957;-79
2024/03/05 00:26:05;;;;;;;;;;;;;;;10.01;100.00;98082.00;5020361;28;19921;-81
2024/03/05 00:28:31;;;;;;;;;;;;;;;9.96;100.00;98077.06;5007304;28;20315;-81
2024/03/05 00:30:56;;;;;;;;;;;;;;;9.08;100.00;97956.78;5008332;28;20008;-81
2024/03/05 00:33:22;;;;;;;;;;;;;;;9.84;100.00;98069.59;5007783;28;19926;-81
2024/03/05 00:35:47;;;;;;;;;;;;;;;9.84;100.00;98070.38;4990900;28;20387;-79
2024/03/05 00:38:12;;;;;;;;;;;;;;;9.75;100.00;98079.38;5007134;28;19972;-80
2024/03/05 00:40:38;;;;;;;;;;;;;;;9.77;100.00;98079.66;5007230;28;20005;-80
2024/03/05 00:43:03;;;;;;;;;;;;;;;9.85;100.00;98066.41;5003093;28;20280;-79
2024/03/05 00:45:30;;;;;;;;;;;;;;;9.95;100.00;98061.72;4992364;28;19953;-79
2024/03/05 00:47:55;;;;;;;;;;;;;;;10.00;100.00;98061.19;5002654;28;19940;-81
2024/03/05 00:50:21;;;;;;;;;;;;;;;10.06;100.00;98067.66;5006930;28;20391;-80
2024/03/05 00:52:46;;;;;;;;;;;;;;;9.97;100.00;98059.31;5005350;28;19933;-79
2024/03/05 00:55:12;;;;;;;;;;;;;;;9.93;100.00;98053.16;5000480;28;19969;-80
2024/03/05 00:57:37;;;;;;;;;;;;;;;9.82;100.00;98051.50;4999181;28;19928;-81
2024/03/05 01:00:03;;;;;;;;;;;;;;;9.78;100.00;98061.91;5008042;28;20474;-80
2024/03/05 01:02:28;;;;;;;;;;;;;;;9.78;100.00;98053.63;4993951;28;20399;-78
2024/03/05 01:04:53;;;;;;;;;;;;;;;9.73;100.00;98045.94;5014641;28;19927;-79
2024/03/05 01:07:19;;;;;;;;;;;;;;;9.72;100.00;98046.38;5021642;28;19929;-79
2024/03/05 01:09:44;;;;;;;;;;;;;;;9.69;100.00;98045.28;5032423;28;19917;-81
2024/03/05 01:12:09;;;;;;;;;;;;;;;9.72;100.00;98038.88;5034502;28;19913;-80
2024/03/05 01:14:35;;;;;;;;;;;;;;;9.65;100.00;98041.88;5016280;28;19953;-80
2024/03/05 01:17:01;;;;;;;;;;;;;;;9.72;100.00;98047.13;5034367;28;19921;-82
2024/03/05 01:19:29;;;;;;;;;;;;;;;9.68;100.00;98052.03;5033262;28;19917;-79
2024/03/05 01:21:56;;;;;;;;;;;;;;;9.69;100.00;98042.53;5033145;28;19924;-79
2024/03/05 01:24:21;;;;;;;;;;;;;;;9.71;100.00;98051.13;5032907;28;19917;-80
2024/03/05 01:26:46;;;;;;;;;;;;;;;9.72;100.00;98052.66;5033024;28;19974;-79
2024/03/05 01:29:16;;;;;;;;;;;;;;;9.75;100.00;98049.03;5033806;28;19913;-80
2024/03/05 01:31:41;;;;;;;;;;;;;;;9.74;100.00;98044.72;5032656;28;19917;-78
2024/03/05 01:34:06;;;;;;;;;;;;;;;9.80;100.00;98034.66;5032651;28;20722;-81
2024/03/05 01:36:32;;;;;;;;;;;;;;;9.85;100.00;98024.25;5032828;28;19917;-81
2024/03/05 01:38:57;;;;;;;;;;;;;;;9.85;100.00;98021.50;5036300;28;19925;-81
2024/03/05 01:41:23;;;;;;;;;;;;;;;9.84;100.00;98033.75;5022315;28;20355;-81
2024/03/05 01:43:48;;;;;;;;;;;;;;;9.84;100.00;98031.75;5029766;28;19917;-78
2024/03/05 01:46:15;;;;;;;;;;;;;;;9.77;100.00;98032.78;5032541;28;19921;-79
2024/03/05 01:48:43;;;;;;;;;;;;;;;9.74;100.00;98022.66;5045569;28;19917;-81
2024/03/05 01:51:09;;;;;;;;;;;;;;;9.81;100.00;98027.16;5032217;28;19921;-82
2024/03/05 01:53:35;;;;;;;;;;;;;;;9.82;100.00;98032.19;5032109;28;19927;-81
2024/03/05 01:56:00;;;;;;;;;;;;;;;9.79;100.00;98024.81;5031952;28;20003;-81
2024/03/05 01:58:25;;;;;;;;;;;;;;;9.82;100.00;98023.19;5015302;28;19975;-81
2024/03/05 02:00:51;;;;;;;;;;;;;;;9.75;100.00;98026.94;5032105;28;19921;-81
2024/03/05 02:03:17;;;;;;;;;;;;;;;9.77;100.00;98020.97;5031404;28;19917;-79
2024/03/05 02:05:43;;;;;;;;;;;;;;;9.77;100.00;98021.75;5032557;28;20306;-80
2024/03/05 02:08:08;;;;;;;;;;;;;;;9.83;100.00;98016.41;5031998;28;19975;-81
2024/03/05 02:10:34;;;;;;;;;;;;;;;9.77;100.00;98020.97;5032000;28;19963;-81
2024/03/05 02:12:59;;;;;;;;;;;;;;;9.71;100.00;98011.72;5045008;28;19917;-81
2024/03/05 02:15:25;;;;;;;;;;;;;;;9.63;100.00;98016.72;5042104;28;19924;-79
2024/03/05 02:17:50;;;;;;;;;;;;;;;9.54;100.00;98015.88;5036669;28;19924;-79
2024/03/05 02:20:15;;;;;;;;;;;;;;;9.59;100.00;98015.28;5042834;28;20353;-79
2024/03/05 02:22:41;;;;;;;;;;;;;;;9.44;100.00;98023.28;5018225;28;19917;-81
2024/03/05 02:25:07;;;;;;;;;;;;;;;9.36;100.00;98016.47;5031819;28;20288;-79
2024/03/05 02:27:33;;;;;;;;;;;;;;;9.34;100.00;98010.66;5015272;28;19917;-82
2024/03/05 02:29:59;;;;;;;;;;;;;;;9.12;100.00;98009.78;5031676;28;19921;-82
2024/03/05 02:32:24;;;;;;;;;;;;;;;9.03;100.00;98004.97;5031583;28;19917;-80
2024/03/05 02:34:54;;;;;;;;;;;;;;;9.06;100.00;98015.09;5031950;28;19923;-80
2024/03/05 02:37:19;;;;;;;;;;;;;;;9.02;100.00;98013.66;5032958;28;19917;-80
2024/03/05 02:39:44;;;;;;;;;;;;;;;9.01;100.00;98014.88;5032163;28;19920;-81
2024/03/05 02:42:10;;;;;;;;;;;;;;;9.02;100.00;98010.91;5033884;28;19939;-78
2024/03/05 02:44:35;;;;;;;;;;;;;;;8.89;100.00;98011.69;5020558;28;19921;-82
2024/03/05 02:47:00;;;;;;;;;;;;;;;8.89;100.00;98010.91;5031713;28;19917;-80
2024/03/05 02:49:25;;;;;;;;;;;;;;;8.93;100.00;98006.84;5032737;28;19917;-82
2024/03/05 02:51:51;;;;;;;;;;;;;;;8.90;100.00;98004.19;5014952;28;19917;-79
2024/03/05 02:54:16;;;;;;;;;;;;;;;8.92;100.00;98007.28;5031686;28;19917;-80
2024/03/05 02:56:42;;;;;;;;;;;;;;;8.87;100.00;98010.59;5035650;28;19917;-80
2024/03/05 02:59:07;;;;;;;;;;;;;;;8.79;100.00;98006.53;5021840;28;19956;-81
2024/03/05 03:01:33;;;;;;;;;;;;;;;8.78;100.00;98005.75;5030821;28;19917;-79
2024/03/05 03:03:58;;;;;;;;;;;;;;;8.75;100.00;98005.84;5034490;28;19970;-79
2024/03/05 03:06:23;;;;;;;;;;;;;;;8.78;100.00;98010.50;5017310;28;19929;-81
2024/03/05 03:08:48;;;;;;;;;;;;;;;8.65;100.00;98002.22;5030721;28;19921;-80
2024/03/05 03:11:14;;;;;;;;;;;;;;;8.68;100.00;98008.84;5032323;28;20389;-79
2024/03/05 03:13:40;;;;;;;;;;;;;;;8.66;100.00;98001.03;5031060;28;19940;-82
2024/03/05 03:16:05;;;;;;;;;;;;;;;8.72;100.00;98010.28;5027690;28;19936;-80
2024/03/05 03:18:31;;;;;;;;;;;;;;;8.82;100.00;98005.63;5031369;28;19996;-79
2024/03/05 03:20:57;;;;;;;;;;;;;;;8.79;100.00;98004.53;5031053;28;19925;-81
2024/03/05 03:23:22;;;;;;;;;;;;;;;8.95;100.00;98007.16;5030701;28;19917;-81
2024/03/05 03:25:48;;;;;;;;;;;;;;;8.92;100.00;97999.03;5043910;28;19978;-81
2024/03/05 03:28:13;;;;;;;;;;;;;;;8.79;100.00;97995.50;5040044;28;19921;-80
2024/03/05 03:30:39;;;;;;;;;;;;;;;8.80;100.00;98002.56;5017579;28;19921;-80
2024/03/05 03:33:04;;;;;;;;;;;;;;;8.89;100.00;98002.66;5040143;28;20283;-79
2024/03/05 03:35:30;;;;;;;;;;;;;;;8.94;100.00;98007.59;5017290;28;19923;-79
2024/03/05 03:37:55;;;;;;;;;;;;;;;8.90;100.00;98006.97;5014290;28;19917;-80
2024/03/05 03:40:21;;;;;;;;;;;;;;;9.01;100.00;98009.38;5045311;28;19974;-79
2024/03/05 03:42:47;;;;;;;;;;;;;;;9.10;100.00;98010.22;5005358;28;19924;-81
2024/03/05 03:45:13;;;;;;;;;;;;;;;9.08;100.00;98011.91;5009977;28;19917;-80
2024/03/05 03:47:39;;;;;;;;;;;;;;;9.05;100.00;98008.03;5030985;28;19965;-81
2024/03/05 03:50:04;;;;;;;;;;;;;;;9.09;100.00;98016.19;5031738;28;20357;-79
2024/03/05 03:52:31;;;;;;;;;;;;;;;9.11;100.00;98009.00;5030502;28;19921;-81
2024/03/05 03:54:57;;;;;;;;;;;;;;;9.15;100.00;98014.44;5030312;28;19924;-79
2024/03/05 03:57:22;;;;;;;;;;;;;;;9.17;100.00;98006.47;5030444;28;19921;-80
2024/03/05 03:59:47;;;;;;;;;;;;;;;9.17;100.00;98012.75;5030401;28;19921;-79
2024/03/05 04:02:12;;;;;;;;;;;;;;;9.14;100.00;98018.41;5040894;28;19916;-80
2024/03/05 04:04:38;;;;;;;;;;;;;;;9.09;100.00;98010.69;5017363;28;19925;-79
2024/03/05 04:07:03;;;;;;;;;;;;;;;9.07;100.00;98011.13;5030460;28;19925;-78
2024/03/05 04:09:28;;;;;;;;;;;;;;;9.11;100.00;98024.78;5031577;28;20027;-79
2024/03/05 04:11:54;;;;;;;;;;;;;;;9.05;100.00;98018.28;5030135;28;19913;-81
2024/03/05 04:14:20;;;;;;;;;;;;;;;9.04;100.00;98014.78;5031511;28;20008;-81
2024/03/05 04:16:45;;;;;;;;;;;;;;;8.95;100.00;98018.19;5030374;28;19917;-80
2024/03/05 04:19:10;;;;;;;;;;;;;;;8.98;100.00;98022.81;5015654;28;20007;-79
2024/03/05 04:21:40;;;;;;;;;;;;;;;9.01;100.00;98032.19;5017599;28;20297;-82
2024/03/05 04:24:06;;;;;;;;;;;;;;;9.07;100.00;98032.41;5033979;28;19974;-81
2024/03/05 04:26:37;;;;;;;;;;;;;;;9.00;100.00;98030.63;5034031;28;19921;-79
2024/03/05 04:29:02;;;;;;;;;;;;;;;9.10;100.00;98029.50;5034119;28;19917;-81
2024/03/05 04:31:34;;;;;;;;;;;;;;;9.08;100.00;98037.47;5026768;28;20003;-81
2024/03/05 04:34:00;;;;;;;;;;;;;;;9.07;100.00;98035.94;5029762;28;19924;-80
2024/03/05 04:36:25;;;;;;;;;;;;;;;9.09;100.00;98035.50;5024451;28;20003;-82
2024/03/05 04:38:52;;;;;;;;;;;;;;;9.19;100.00;98031.59;5033607;28;20004;-82
2024/03/05 04:41:17;;;;;;;;;;;;;;;9.07;100.00;98035.16;5034312;28;19917;-80
2024/03/05 04:43:43;;;;;;;;;;;;;;;9.14;100.00;98035.69;5033921;28;20031;-79
2024/03/05 04:46:08;;;;;;;;;;;;;;;9.09;100.00;98032.72;5036043;28;19924;-81
2024/03/05 04:48:33;;;;;;;;;;;;;;;9.13;100.00;98031.41;5017866;28;19917;-80
2024/03/05 04:50:59;;;;;;;;;;;;;;;9.09;100.00;98032.72;5017278;28;20421;-80
2024/03/05 04:53:24;;;;;;;;;;;;;;;8.92;100.00;98034.84;5048074;28;20288;-82
2024/03/05 04:55:49;;;;;;;;;;;;;;;8.92;100.00;98035.59;5033766;28;19921;-80
2024/03/05 04:58:15;;;;;;;;;;;;;;;8.87;100.00;98033.41;5034618;28;19990;-80
2024/03/05 05:00:40;;;;;;;;;;;;;;;8.82;100.00;98028.44;5033420;28;19917;-80
2024/03/05 05:03:06;;;;;;;;;;;;;;;8.74;100.00;98026.38;5033390;28;20048;-79
2024/03/05 05:05:31;;;;;;;;;;;;;;;8.77;100.00;98026.25;5043051;28;20414;-79
2024/03/05 05:07:57;;;;;;;;;;;;;;;8.72;100.00;98028.78;5019465;28;20008;-81
2024/03/05 05:10:22;;;;;;;;;;;;;;;8.73;100.00;98033.06;5016986;28;19917;-79
2024/03/05 05:12:47;;;;;;;;;;;;;;;8.78;100.00;98027.78;5034793;28;19924;-80
2024/03/05 05:15:14;;;;;;;;;;;;;;;8.73;100.00;98033.84;5036110;28;19917;-79
2024/03/05 05:17:39;;;;;;;;;;;;;;;8.77;100.00;98033.72;5035155;28;19921;-79
2024/03/05 05:20:08;;;;;;;;;;;;;;;8.84;100.00;98033.50;5036008;28;19918;-82
2024/03/05 05:22:38;;;;;;;;;;;;;;;8.78;100.00;98036.06;5036325;28;19917;-79
2024/03/05 05:25:04;;;;;;;;;;;;;;;8.76;100.00;98023.91;5050222;28;19917;-79
2024/03/05 05:27:29;;;;;;;;;;;;;;;8.71;100.00;98028.00;5043145;28;19921;-79
2024/03/05 05:29:54;;;;;;;;;;;;;;;8.67;100.00;98019.09;5033133;28;19920;-78
2024/03/05 05:32:20;;;;;;;;;;;;;;;8.52;100.00;98018.72;5045809;28;20375;-78
2024/03/05 05:34:46;;;;;;;;;;;;;;;8.44;100.00;98024.88;5032871;28;19917;-80
2024/03/05 05:37:11;;;;;;;;;;;;;;;8.46;100.00;98026.00;5033717;28;19920;-79
2024/03/05 05:39:37;;;;;;;;;;;;;;;8.40;100.00;98035.22;5032723;28;19975;-81
2024/03/05 05:42:02;;;;;;;;;;;;;;;8.39;100.00;98039.19;5033729;28;20432;-79
2024/03/05 05:44:29;;;;;;;;;;;;;;;8.31;100.00;98043.38;5015805;28;20334;-78
2024/03/05 05:46:54;;;;;;;;;;;;;;;8.35;100.00;98047.56;5032925;28;19917;-80
2024/03/05 05:49:19;;;;;;;;;;;;;;;8.31;100.00;98049.66;5032009;28;19923;-79
2024/03/05 05:51:45;;;;;;;;;;;;;;;8.35;100.00;98049.53;5015307;28;20306;-78
2024/03/05 05:54:11;;;;;;;;;;;;;;;8.44;100.00;98055.94;5032012;28;20008;-78
2024/03/05 05:56:36;;;;;;;;;;;;;;;8.38;100.00;98051.44;5031978;28;20002;-78
2024/03/05 05:59:06;;;;;;;;;;;;;;;8.46;100.00;98047.25;5031828;28;19917;-79
2024/03/05 06:01:33;;;;;;;;;;;;;;;8.60;100.00;98041.31;5046027;28;19929;-79
2024/03/05 06:03:58;;;;;;;;;;;;;;;8.66;100.00;98036.81;5042968;28;20011;-81
2024/03/05 06:06:24;;;;;;;;;;;;;;;8.73;100.00;98038.59;5018497;28;19959;-81
2024/03/05 06:08:49;;;;;;;;;;;;;;;8.74;100.00;98043.63;5032253;28;19925;-80
2024/03/05 06:11:15;;;;;;;;;;;;;;;8.69;100.00;98032.41;5045280;28;19932;-79
2024/03/05 06:13:40;;;;;;;;;;;;;;;8.60;100.00;98035.81;5031810;28;20070;-78
2024/03/05 06:16:07;;;;;;;;;;;;;;;8.57;100.00;98029.19;5017195;28;20015;-82
2024/03/05 06:18:33;;;;;;;;;;;;;;;8.63;100.00;98029.41;5043609;28;19921;-80
2024/03/05 06:20:58;;;;;;;;;;;;;;;8.53;100.00;98036.81;5031617;28;20318;-79
2024/03/05 06:23:24;;;;;;;;;;;;;;;8.54;100.00;98040.31;5033596;28;19971;-78
2024/03/05 06:25:49;;;;;;;;;;;;;;;8.54;100.00;98029.31;5034722;28;20366;-79
2024/03/05 06:28:14;;;;;;;;;;;;;;;8.56;100.00;98035.13;5025886;28;19917;-79
2024/03/05 06:30:45;;;;;;;;;;;;;;;8.49;100.00;98030.63;5031948;28;19917;-80
2024/03/05 06:33:12;;;;;;;;;;;;;;;8.60;100.00;98038.56;5031647;28;20011;-78
2024/03/05 06:35:38;;;;;;;;;;;;;;;8.68;100.00;98041.88;5031010;28;19921;-78
2024/03/05 06:38:08;;;;;;;;;;;;;;;8.74;100.00;98038.13;5032709;28;19921;-79
2024/03/05 06:40:35;;;;;;;;;;;;;;;8.78;100.00;98047.06;5031473;28;19939;-82
2024/03/05 06:43:04;;;;;;;;;;;;;;;8.60;100.00;98038.56;5031790;28;19924;-79
2024/03/05 06:45:34;;;;;;;;;;;;;;;8.57;100.00;98033.94;5044861;28;20013;-79
2024/03/05 06:48:07;;;;;;;;;;;;;;;8.49;100.00;98038.13;5031337;28;20473;-80
2024/03/05 06:50:41;;;;;;;;;;;;;;;8.57;100.00;98048.47;5038120;28;19921;-81
2024/03/05 06:58:37;;;;;;;;;;;;;;;8.52;100.00;98045.50;5032318;28;20011;-82
2024/03/05 07:01:13;;;;;;;;;;;;;;;8.48;100.00;98045.59;5029526;28;19921;-80
2024/03/05 07:03:40;;;;;;;;;;;;;;;8.48;100.00;98055.84;5028720;28;19924;-81
2024/03/05 07:06:15;;;;;;;;;;;;;;;8.43;100.00;98048.13;5027434;28;20016;-79
2024/03/05 07:08:42;;;;;;;;;;;;;;;8.33;100.00;98057.44;5028455;28;20009;-83
2024/03/05 07:11:10;;;;;;;;;;;;;;;8.38;100.00;98051.44;5024663;28;19917;-80
2024/03/05 07:13:40;;;;;;;;;;;;;;;8.38;100.00;98056.94;5031415;28;19920;-79
2024/03/05 07:16:09;;;;;;;;;;;;;;;8.28;100.00;98061.50;5023870;28;19916;-79
2024/03/05 07:18:36;;;;;;;;;;;;;;;8.08;100.00;98067.16;5018068;28;19924;-79
2024/03/05 07:21:01;;;;;;;;;;;;;;;8.05;100.00;98065.28;5030888;28;20386;-82
2024/03/05 07:23:28;;;;;;;;;;;;;;;8.24;100.00;98062.81;5021511;28;19925;-81
2024/03/05 07:25:54;;;;;;;;;;;;;;;8.28;100.00;98057.97;5031128;28;19917;-81
2024/03/05 07:28:20;;;;;;;;;;;;;;;8.33;100.00;98062.97;5021528;28;19929;-80
2024/03/05 07:30:46;;;;;;;;;;;;;;;8.29;100.00;98065.78;5041924;28;19917;-80
2024/03/05 07:33:12;;;;;;;;;;;;;;;8.39;100.00;98064.72;5031260;28;20318;-81
2024/03/05 07:35:37;;;;;;;;;;;;;;;8.42;100.00;98074.88;5028320;28;19921;-82
2024/03/05 07:38:03;;;;;;;;;;;;;;;8.40;100.00;98065.50;5009905;28;19924;-79
2024/03/05 07:40:29;;;;;;;;;;;;;;;8.50;100.00;98069.94;5021227;28;19924;-80
2024/03/05 07:42:54;;;;;;;;;;;;;;;8.47;100.00;98070.81;5017771;28;19917;-79
2024/03/05 07:45:21;;;;;;;;;;;;;;;8.47;100.00;98073.56;5016836;28;20367;-79
2024/03/05 07:47:47;;;;;;;;;;;;;;;8.46;100.00;98066.50;5027760;28;19921;-80
2024/03/05 07:50:12;;;;;;;;;;;;;;;8.50;100.00;98070.69;5028125;28;19986;-81
2024/03/05 07:52:39;;;;;;;;;;;;;;;8.50;100.00;98081.72;5029151;28;19925;-82
2024/03/05 07:55:07;;;;;;;;;;;;;;;8.58;100.00;98071.28;5032123;28;19924;-79
2024/03/05 07:57:34;;;;;;;;;;;;;;;8.59;100.00;98078.31;5032121;28;19964;-81
2024/03/05 07:59:59;;;;;;;;;;;;;;;8.53;100.00;98080.06;5045002;28;19917;-80
2024/03/05 08:02:25;;;;;;;;;;;;;;;8.43;100.00;98078.41;5016949;28;19917;-81
2024/03/05 08:04:50;;;;;;;;;;;;;;;8.34;100.00;98079.03;5034173;28;19940;-81
2024/03/05 08:07:15;;;;;;;;;;;;;;;8.36;100.00;98084.88;5035075;28;19921;-80
2024/03/05 08:09:40;;;;;;;;;;;;;;;8.40;100.00;98082.03;5017913;28;19921;-80
2024/03/05 08:12:06;;;;;;;;;;;;;;;8.32;100.00;98078.69;5035621;28;19913;-80
2024/03/05 08:14:31;;;;;;;;;;;;;;;8.37;100.00;98080.94;5033939;28;19983;-80
2024/03/05 08:16:57;;;;;;;;;;;;;;;8.47;100.00;98082.59;5038969;28;20326;-81
2024/03/05 08:19:22;;;;;;;;;;;;;;;8.67;100.00;98078.91;5043582;28;20011;-79
2024/03/05 08:21:48;;;;;;;;;;;;;;;8.73;100.00;98079.91;5033825;28;19921;-82
2024/03/05 08:24:14;;;;;;;;;;;;;;;8.79;100.00;98081.66;5030424;28;19913;-79
2024/03/05 08:26:39;;;;;;;;;;;;;;;8.77;100.00;98088.81;5017905;28;19913;-80
2024/03/05 08:29:04;;;;;;;;;;;;;;;8.80;100.00;98080.44;5017833;28;19924;-80
2024/03/05 08:31:29;;;;;;;;;;;;;;;8.76;100.00;98088.03;5035588;28;19917;-79
2024/03/05 08:33:55;;;;;;;;;;;;;;;8.80;100.00;98085.94;5034088;28;19924;-80
2024/03/05 08:36:21;;;;;;;;;;;;;;;8.87;100.00;98088.47;5035827;28;19924;-81
2024/03/05 08:38:47;;;;;;;;;;;;;;;8.93;100.00;98083.19;5020321;28;20417;-81
2024/03/05 08:41:12;;;;;;;;;;;;;;;8.91;100.00;98088.41;5024951;28;19967;-79
2024/03/05 08:43:37;;;;;;;;;;;;;;;8.93;100.00;98085.94;5030826;28;19917;-79
2024/03/05 08:46:04;;;;;;;;;;;;;;;8.96;100.00;98085.84;5035181;28;20007;-80
2024/03/05 08:48:29;;;;;;;;;;;;;;;9.02;100.00;98090.81;5017154;28;19939;-82
2024/03/05 08:50:55;;;;;;;;;;;;;;;9.03;100.00;98082.13;5042252;28;20379;-80
2024/03/05 08:53:20;;;;;;;;;;;;;;;9.05;100.00;98087.16;5040693;28;19913;-81
2024/03/05 08:55:46;;;;;;;;;;;;;;;9.18;100.00;98087.94;5019028;28;19921;-80
2024/03/05 08:58:11;;;;;;;;;;;;;;;9.25;100.00;98087.72;5020105;28;19940;-81
2024/03/05 09:00:38;;;;;;;;;;;;;;;9.32;100.00;98076.47;5033782;28;19913;-79
2024/03/05 09:03:03;;;;;;;;;;;;;;;9.45;100.00;98082.75;5036127;28;19956;-80
2024/03/05 09:05:28;;;;;;;;;;;;;;;9.60;100.00;98083.81;5036250;28;20357;-79
2024/03/05 09:07:54;;;;;;;;;;;;;;;9.72;100.00;98085.75;5038345;28;19963;-79
2024/03/05 09:10:19;;;;;;;;;;;;;;;9.84;100.00;98094.44;5034081;28;20314;-80
2024/03/05 09:12:45;;;;;;;;;;;;;;;10.00;100.00;98097.81;5047111;28;19988;-82
2024/03/05 09:15:12;;;;;;;;;;;;;;;10.14;100.00;98088.25;5033880;28;19921;-80
2024/03/05 09:17:37;;;;;;;;;;;;;;;10.29;100.00;98091.31;5032486;28;20383;-79
2024/03/05 09:20:13;;;;;;;;;;;;;;;10.33;100.00;98094.72;5032760;28;19963;-81
2024/03/05 09:22:40;;;;;;;;;;;;;;;10.51;100.00;98092.09;5016127;28;19917;-82
2024/03/05 09:25:06;;;;;;;;;;;;;;;10.46;100.00;98101.72;5042707;28;19913;-80
2024/03/05 09:27:31;;;;;;;;;;;;;;;10.86;100.00;98093.50;5015552;28;20040;-81
2024/03/05 09:29:56;;;;;;;;;;;;;;;11.12;100.00;98098.84;5032974;28;19930;-79
2024/03/05 09:32:24;;;;;;;;;;;;;;;11.23;100.00;98094.44;5022180;28;20279;-80
2024/03/05 09:34:49;;;;;;;;;;;;;;;11.37;100.00;98098.66;5025473;28;19921;-80
2024/03/05 09:37:15;;;;;;;;;;;;;;;11.30;100.00;98096.94;5036887;28;20015;-80
2024/03/05 09:39:40;;;;;;;;;;;;;;;11.38;100.00;98100.97;5043394;28;20425;-79
2024/03/05 09:42:09;;;;;;;;;;;;;;;11.43;100.00;98103.13;5037040;28;20015;-79
2024/03/05 09:44:36;;;;;;;;;;;;;;;11.38;100.00;98097.44;5021907;28;20357;-80
2024/03/05 09:47:01;;;;;;;;;;;;;;;11.35;100.00;98099.09;5030947;28;20407;-81
2024/03/05 09:49:28;;;;;;;;;;;;;;;11.20;100.00;98095.38;5033082;28;19917;-81
2024/03/05 09:51:54;;;;;;;;;;;;;;;11.15;100.00;98104.22;5036542;28;19912;-79
2024/03/05 09:54:20;;;;;;;;;;;;;;;11.29;100.00;98097.38;5023920;28;20444;-78
2024/03/05 09:56:48;;;;;;;;;;;;;;;11.41;100.00;98102.03;5033239;28;19917;-80
2024/03/05 09:59:17;;;;;;;;;;;;;;;11.51;100.00;98100.06;5031961;28;19928;-82
2024/03/05 10:01:45;;;;;;;;;;;;;;;11.55;100.00;98104.22;5033089;28;19917;-80
2024/03/05 10:04:12;;;;;;;;;;;;;;;11.71;100.00;98101.19;5032055;28;20366;-80
2024/03/05 10:06:38;;;;;;;;;;;;;;;11.96;99.85;98102.94;5032911;28;19932;-79
2024/03/05 10:09:05;;;;;;;;;;;;;;;12.17;98.58;98098.50;5032112;28;19921;-81
2024/03/05 10:11:31;;;;;;;;;;;;;;;12.46;96.87;98101.56;5033016;28;19913;-79
2024/03/05 10:14:02;;;;;;;;;;;;;;;12.69;94.49;98105.69;5045654;28;19920;-80
2024/03/05 10:16:27;;;;;;;;;;;;;;;12.97;92.10;98109.13;5018156;28;19938;-81
2024/03/05 10:18:53;;;;;;;;;;;;;;;12.80;90.03;98110.72;5031393;28;20398;-82
2024/03/05 10:21:22;;;;;;;;;;;;;;;12.61;89.72;98110.00;5032591;28;19917;-81
2024/03/05 10:23:57;;;;;;;;;;;;;;;12.43;89.52;98105.25;5031919;28;20342;-79
2024/03/05 10:26:30;;;;;;;;;;;;;;;12.30;90.64;98110.16;5002416;28;19913;-79
2024/03/05 10:29:09;;;;;;;;;;;;;;;12.36;90.44;98104.78;5044788;28;19916;-79
2024/03/05 10:31:46;;;;;;;;;;;;;;;11.99;91.61;98102.03;5031722;28;19956;-80
2024/03/05 10:34:15;;;;;;;;;;;;;;;11.82;93.97;98103.53;5031555;28;19921;-82
2024/03/05 10:36:45;;;;;;;;;;;;;;;11.47;96.22;98091.13;5031331;28;19967;-79
2024/03/05 10:39:12;;;;;;;;;;;;;;;11.30;98.40;98098.94;5032579;28;19913;-82
2024/03/05 10:41:39;;;;;;;;;;;;;;;11.27;99.68;98095.06;5032775;28;19975;-81
2024/03/05 10:44:08;;;;;;;;;;;;;;;11.10;99.90;98096.53;5030856;28;20387;-79
2024/03/05 10:46:35;;;;;;;;;;;;;;;11.06;100.00;98084.84;5039299;28;19968;-80
2024/03/05 10:49:01;;;;;;;;;;;;;;;11.05;100.00;98088.06;5032440;28;19917;-81
2024/03/05 10:51:30;;;;;;;;;;;;;;;11.20;100.00;98089.06;5030922;28;19917;-81
2024/03/05 10:54:01;;;;;;;;;;;;;;;11.16;100.00;98094.72;5022079;28;19921;-79
2024/03/05 10:56:27;;;;;;;;;;;;;;;10.99;100.00;98094.19;5022075;28;19953;-79
2024/03/05 10:59:23;;;;;;;;;;;;;;;10.53;100.00;98098.72;5036243;28;19914;-81
2024/03/05 11:01:51;;;;;;;;;;;;;;;10.35;100.00;98103.34;5030836;28;19921;-80
2024/03/05 11:04:24;;;;;;;;;;;;;;;10.30;100.00;98096.41;5030815;28;20341;-80
2024/03/05 11:06:52;;;;;;;;;;;;;;;10.22;100.00;98100.63;4994179;28;19926;-79
2024/03/05 11:09:19;;;;;;;;;;;;;;;10.23;100.00;98099.41;5007987;28;20383;-80
2024/03/05 11:11:46;;;;;;;;;;;;;;;10.19;100.00;98093.22;5007856;28;19929;-79
2024/03/05 11:14:12;;;;;;;;;;;;;;;10.13;100.00;98089.47;5007416;28;20413;-79
2024/03/05 11:16:37;;;;;;;;;;;;;;;10.02;100.00;98086.31;5007706;28;20009;-82
2024/03/05 11:19:04;;;;;;;;;;;;;;;9.84;100.00;98092.47;5007123;28;20021;-79
2024/03/05 11:21:31;;;;;;;;;;;;;;;9.82;100.00;98088.63;5007680;28;19972;-80
2024/03/05 11:23:57;;;;;;;;;;;;;;;9.84;100.00;98080.66;4991445;28;20061;-79
2024/03/05 11:26:23;;;;;;;;;;;;;;;9.81;100.00;98085.09;4992523;28;19988;-80
2024/03/05 11:28:49;;;;;;;;;;;;;;;10.10;100.00;98082.88;4991418;28;20280;-79
2024/03/05 11:31:18;;;;;;;;;;;;;;;10.30;100.00;98088.13;5007438;28;19925;-82
2024/03/05 11:33:44;;;;;;;;;;;;;;;10.36;100.00;98083.56;5008883;28;20087;-80
2024/03/05 11:36:17;;;;;;;;;;;;;;;10.44;100.00;98090.34;4999812;28;20467;-79
2024/03/05 11:39:03;;;;;;;;;;;;;;;10.18;100.00;98091.72;4990266;28;20016;-81
2024/03/05 11:41:30;;;;;;;;;;;;;;;10.23;100.00;98087.59;5000078;28;19921;-81
2024/03/05 11:43:56;;;;;;;;;;;;;;;10.27;100.00;98082.72;4991309;28;20333;-79
2024/03/05 11:46:41;;;;;;;;;;;;;;;10.10;100.00;98077.34;5018965;28;19913;-80
2024/03/05 11:49:07;;;;;;;;;;;;;;;10.19;100.00;98077.44;4981104;28;19914;-78
2024/03/05 11:51:32;;;;;;;;;;;;;;;10.21;100.00;98082.53;4993195;28;19913;-81
2024/03/05 11:53:59;;;;;;;;;;;;;;;10.19;100.00;98073.91;5004286;28;19929;-81
2024/03/05 11:56:24;;;;;;;;;;;;;;;10.27;100.00;98077.19;4992419;28;19918;-80
2024/03/05 11:58:54;;;;;;;;;;;;;;;10.11;100.00;98070.63;4991675;28;19925;-80
2024/03/05 12:01:19;;;;;;;;;;;;;;;10.16;100.00;98066.50;4991561;28;20319;-82
2024/03/05 12:03:45;;;;;;;;;;;;;;;10.10;100.00;98071.06;4999481;28;19972;-79
2024/03/05 12:06:10;;;;;;;;;;;;;;;10.19;100.00;98068.38;4994444;28;20459;-79
2024/03/05 12:08:38;;;;;;;;;;;;;;;10.24;100.00;98075.34;5027080;28;20399;-79
2024/03/05 12:11:05;;;;;;;;;;;;;;;10.35;100.00;98067.44;5025446;28;19975;-81
2024/03/05 12:13:31;;;;;;;;;;;;;;;10.43;100.00;98068.69;5010247;28;19918;-83
2024/03/05 12:16:07;;;;;;;;;;;;;;;10.41;100.00;98074.69;5023157;28;19917;-82
2024/03/05 12:18:32;;;;;;;;;;;;;;;10.57;100.00;98082.00;5017544;28;20008;-79
2024/03/05 12:20:57;;;;;;;;;;;;;;;10.68;100.00;98078.81;5013213;28;19964;-80
2024/03/05 12:23:23;;;;;;;;;;;;;;;10.58;100.00;98078.78;5009345;28;19920;-81
2024/03/05 12:25:49;;;;;;;;;;;;;;;10.49;100.00;98087.00;5010153;28;19913;-81
2024/03/05 12:28:14;;;;;;;;;;;;;;;10.49;100.00;98086.22;5008388;28;19932;-79
2024/03/05 12:30:40;;;;;;;;;;;;;;;10.46;100.00;98081.63;5019369;28;20036;-82
2024/03/05 12:33:05;;;;;;;;;;;;;;;10.42;100.00;98081.00;5023708;28;19917;-79
2024/03/05 12:35:31;;;;;;;;;;;;;;;10.36;100.00;98083.56;5013069;28;20022;-81
2024/03/05 12:38:01;;;;;;;;;;;;;;;10.32;100.00;98082.91;5032307;28;19920;-80
2024/03/05 12:40:28;;;;;;;;;;;;;;;10.27;100.00;98086.25;5046083;28;20385;-78
2024/03/05 12:43:04;;;;;;;;;;;;;;;10.50;100.00;98090.53;5018864;28;19917;-80
2024/03/05 12:45:30;;;;;;;;;;;;;;;10.45;100.00;98085.59;5018127;28;19983;-81
2024/03/05 12:47:55;;;;;;;;;;;;;;;10.28;100.00;98082.28;5041740;28;19999;-79